createdAt,value
2018-11-22T00:01:02.468Z,15.20
2018-11-22T00:03:29.498Z,14.27
2018-11-22T00:05:56.544Z,17.53
2018-11-22T00:08:23.594Z,20.53
2018-11-22T00:10:50.640Z,15.23
2018-11-22T00:13:17.687Z,16.33
2018-11-22T00:15:44.743Z,19.13
2018-11-22T00:18:11.744Z,18.30
2018-11-22T00:20:38.784Z,15.00
2018-11-22T00:23:05.803Z,15.67
2018-11-22T12:17:48.165Z,38.63
2018-11-22T12:20:16.362Z,37.97
2018-11-22T12:22:45.073Z,36.20
2018-11-22T12:25:13.644Z,35.87
2018-11-22T12:27:42.772Z,38.50
2018-11-22T12:30:13.712Z,37.07
2018-11-22T12:32:46.809Z,37.57
2018-11-22T12:35:19.923Z,44.13
2018-11-22T12:37:53.073Z,29.63
2018-11-22T12:40:20.516Z,40.83
2018-11-22T12:42:48.049Z,34.20
2018-11-22T12:45:15.504Z,38.13
2018-11-22T12:47:42.976Z,37.17
2018-11-22T12:50:10.621Z,40.87
2018-11-22T12:52:38.096Z,35.20
2018-11-22T12:55:07.027Z,36.87
2018-11-22T12:57:34.476Z,38.40
2018-11-22T13:00:01.948Z,34.23
2018-11-22T13:02:29.396Z,38.10
2018-11-22T13:04:56.844Z,34.40
2018-11-22T13:07:24.282Z,38.67
2018-11-22T13:09:51.732Z,34.00
2018-11-22T13:12:19.185Z,33.13
2018-11-22T13:14:46.577Z,31.03
2018-11-22T13:17:14.046Z,30.83
2018-11-22T13:19:41.488Z,31.10
2018-11-22T13:22:09.259Z,38.17
2018-11-22T13:24:36.704Z,60.67
2018-11-22T13:27:04.145Z,31.33
2018-11-22T13:29:31.581Z,29.03
2018-11-22T13:31:59.136Z,44.33
2018-11-22T13:34:26.574Z,45.57
2018-11-22T13:36:54.012Z,68.27
2018-11-22T13:39:21.440Z,104.93
2018-11-22T13:41:49.027Z,52.23
2018-11-22T13:44:16.724Z,56.27
2018-11-22T13:46:44.141Z,60.67
2018-11-22T13:49:11.603Z,81.47
2018-11-22T13:51:39.306Z,45.37
2018-11-22T13:54:06.741Z,51.93
2018-11-22T13:56:34.181Z,32.77
2018-11-22T13:59:01.608Z,31.90
2018-11-22T14:01:29.318Z,36.27
2018-11-22T14:03:56.784Z,37.80
2018-11-22T14:06:24.340Z,30.27
2018-11-22T14:08:51.771Z,31.10
2018-11-22T14:11:19.194Z,32.10
2018-11-22T14:13:46.660Z,31.07
2018-11-22T14:16:14.088Z,32.40
2018-11-22T14:18:41.533Z,32.80
2018-11-22T14:21:08.967Z,28.20
2018-11-22T14:23:36.376Z,32.93
2018-11-22T14:26:03.942Z,35.67
2018-11-22T14:28:34.297Z,32.90
2018-11-22T14:31:02.694Z,38.20
2018-11-22T14:33:32.808Z,30.23
2018-11-22T14:36:00.313Z,35.20
2018-11-22T14:38:28.335Z,30.77
2018-11-22T14:40:55.808Z,34.87
2018-11-22T14:43:23.316Z,33.80
2018-11-22T14:45:50.813Z,33.70
2018-11-22T14:48:18.263Z,36.80
2018-11-22T14:50:56.128Z,35.60
2018-11-22T14:53:23.593Z,38.23
2018-11-22T14:55:51.032Z,39.83
2018-11-22T14:58:18.464Z,39.10
2018-11-22T15:00:45.967Z,42.87
2018-11-22T15:03:13.468Z,36.57
2018-11-22T15:05:40.972Z,36.90
2018-11-22T15:08:08.504Z,35.53
2018-11-22T15:10:36.013Z,35.83
2018-11-22T15:13:03.596Z,34.90
2018-11-22T15:15:31.140Z,36.40
2018-11-22T15:17:58.605Z,39.20
2018-11-22T15:20:26.080Z,35.97
2018-11-22T15:22:54.032Z,33.67
2018-11-22T15:25:23.718Z,38.20
2018-11-22T15:27:51.144Z,39.57
2018-11-22T15:30:21.083Z,35.33
2018-11-22T15:32:48.556Z,40.70
2018-11-22T15:35:17.330Z,40.70
2018-11-22T15:37:45.229Z,41.83
2018-11-22T15:40:18.110Z,41.03
2018-11-22T15:42:46.936Z,54.47
2018-11-22T15:45:15.781Z,57.13
2018-11-22T15:47:43.721Z,49.23
2018-11-22T15:50:13.570Z,43.10
2018-11-22T15:52:41.297Z,39.67
2018-11-22T15:55:09.265Z,39.90
2018-11-22T15:57:37.417Z,39.70
2018-11-22T16:00:09.253Z,42.47
2018-11-22T16:02:36.708Z,42.53
2018-11-22T16:05:05.337Z,40.67
2018-11-22T16:07:32.776Z,38.43
2018-11-22T16:10:00.288Z,46.97
2018-11-22T16:12:27.778Z,40.10
2018-11-22T16:14:55.238Z,45.43
2018-11-22T16:17:22.767Z,42.10
2018-11-22T16:19:50.224Z,49.57
2018-11-22T16:22:17.805Z,45.23
2018-11-22T16:24:45.290Z,44.33
2018-11-22T16:27:12.798Z,40.10
2018-11-22T16:29:40.237Z,40.13
2018-11-22T16:32:08.502Z,40.00
2018-11-22T16:34:35.996Z,41.33
2018-11-22T16:37:03.449Z,42.33
2018-11-22T16:39:31.712Z,37.53
2018-11-22T16:41:59.176Z,36.60
2018-11-22T16:44:26.660Z,44.10
2018-11-22T16:46:54.108Z,44.93
2018-11-22T16:49:21.576Z,38.10
2018-11-22T16:51:49.050Z,37.67
2018-11-22T16:54:16.456Z,52.10
2018-11-22T16:56:44.665Z,46.43
2018-11-22T16:59:12.089Z,46.73
2018-11-22T17:01:39.698Z,41.20
2018-11-22T17:04:07.188Z,43.93
2018-11-22T17:06:35.171Z,43.53
2018-11-22T17:09:04.357Z,51.43
2018-11-22T17:11:33.390Z,46.00
2018-11-22T17:14:00.412Z,43.90
2018-11-22T17:16:28.917Z,44.97
2018-11-22T17:18:56.416Z,47.67
2018-11-22T17:21:24.693Z,50.30
2018-11-22T17:23:52.382Z,44.30
2018-11-22T17:26:19.848Z,61.03
2018-11-22T17:28:47.280Z,54.50
2018-11-22T17:31:15.644Z,55.83
2018-11-22T17:33:43.088Z,55.83
2018-11-22T17:36:10.612Z,55.07
2018-11-22T17:38:38.036Z,56.63
2018-11-22T17:41:05.933Z,58.33
2018-11-22T17:43:33.364Z,53.50
2018-11-22T17:46:00.815Z,49.80
2018-11-22T17:48:28.669Z,53.50
2018-11-22T17:50:56.161Z,57.37
2018-11-22T17:53:23.879Z,51.70
2018-11-22T17:55:51.267Z,51.23
2018-11-22T17:58:18.864Z,58.13
2018-11-22T18:00:49.765Z,52.97
2018-11-22T18:03:17.224Z,48.10
2018-11-22T18:05:44.688Z,43.93
2018-11-22T18:08:12.140Z,56.43
2018-11-22T18:10:40.393Z,45.33
2018-11-22T18:13:07.864Z,46.80
2018-11-22T18:16:11.475Z,48.57
2018-11-22T18:18:38.931Z,54.60
2018-11-22T18:21:06.831Z,43.17
2018-11-22T18:23:34.316Z,49.03
2018-11-22T18:26:01.754Z,46.20
2018-11-22T18:28:29.228Z,50.30
2018-11-22T18:30:56.673Z,56.40
2018-11-22T18:33:24.116Z,50.27
2018-11-22T18:35:51.661Z,43.47
2018-11-22T18:38:19.084Z,50.30
2018-11-22T18:40:46.513Z,47.27
2018-11-22T18:43:13.951Z,47.67
2018-11-22T18:45:42.836Z,44.07
2018-11-22T18:48:11.849Z,48.23
2018-11-22T18:50:39.721Z,47.57
2018-11-22T18:53:07.387Z,44.73
2018-11-22T18:55:34.824Z,48.03
2018-11-22T18:58:02.264Z,49.43
2018-11-22T19:00:31.768Z,48.73
2018-11-22T19:03:00.701Z,48.00
2018-11-22T19:05:28.140Z,50.60
2018-11-22T19:07:56.320Z,42.23
2018-11-22T19:10:27.929Z,47.27
2018-11-22T19:12:56.799Z,53.37
2018-11-22T19:15:26.304Z,47.63
2018-11-22T19:17:53.992Z,53.23
2018-11-22T19:20:24.744Z,47.67
2018-11-22T19:22:52.723Z,46.73
2018-11-22T19:25:20.813Z,54.03
2018-11-22T19:27:49.421Z,62.77
2018-11-22T19:30:37.352Z,54.83
2018-11-22T19:33:02.675Z,53.70
2018-11-22T19:35:31.489Z,53.43
2018-11-22T19:37:59.084Z,56.13
2018-11-22T19:40:28.711Z,51.80
2018-11-22T19:42:57.495Z,51.20
2018-11-22T19:45:26.649Z,54.13
2018-11-22T19:47:54.177Z,51.53
2018-11-22T19:50:23.060Z,45.83
2018-11-22T19:52:51.250Z,51.93
2018-11-22T19:55:21.321Z,50.80
2018-11-22T19:57:50.480Z,46.60
2018-11-22T20:00:18.772Z,49.20
2018-11-22T20:02:46.664Z,52.47
2018-11-22T20:05:15.279Z,48.10
2018-11-22T20:07:43.752Z,50.47
2018-11-22T20:10:15.092Z,47.67
2018-11-22T20:12:42.796Z,48.90
2018-11-22T20:15:10.403Z,48.40
2018-11-22T20:17:37.833Z,48.40
2018-11-22T20:20:06.776Z,54.33
2018-11-22T20:22:34.211Z,57.03
2018-11-22T20:25:01.663Z,52.77
2018-11-22T20:27:29.148Z,54.37
2018-11-22T20:29:56.566Z,51.07
2018-11-22T20:32:24.416Z,55.77
2018-11-22T20:34:51.879Z,51.67
2018-11-22T20:37:19.337Z,47.53
2018-11-22T20:39:46.812Z,57.13
2018-11-22T20:42:14.245Z,58.30
2018-11-22T20:44:42.409Z,53.27
2018-11-22T20:47:09.893Z,63.53
2018-11-22T20:49:37.331Z,54.57
2018-11-22T20:52:04.900Z,55.67
2018-11-22T20:54:32.349Z,58.00
2018-11-22T20:56:59.807Z,53.90
2018-11-22T20:59:27.224Z,49.80
2018-11-22T21:01:54.769Z,55.37
2018-11-22T21:04:22.190Z,52.97
2018-11-22T21:06:49.641Z,54.93
2018-11-22T21:09:17.108Z,51.27
2018-11-22T21:11:44.556Z,51.20
2018-11-22T21:14:11.960Z,52.20
2018-11-22T21:16:39.441Z,53.07
2018-11-22T21:19:06.976Z,46.33
2018-11-22T21:21:34.527Z,47.07
2018-11-22T21:24:02.095Z,57.93
2018-11-22T21:26:29.570Z,55.37
2018-11-22T21:28:57.020Z,54.13
2018-11-22T21:31:24.472Z,49.50
2018-11-22T21:33:51.964Z,51.53
2018-11-22T21:36:19.414Z,55.57
2018-11-22T21:38:46.941Z,56.00
2018-11-22T21:41:14.371Z,57.70
2018-11-22T21:43:41.799Z,54.07
2018-11-22T21:46:09.238Z,53.60
2018-11-22T21:48:36.647Z,52.53
2018-11-22T21:51:04.440Z,53.10
2018-11-22T21:53:31.870Z,48.97
2018-11-22T21:55:59.330Z,46.40
2018-11-22T21:58:26.748Z,46.40
2018-11-22T22:00:54.172Z,48.67
2018-11-22T22:03:21.601Z,52.93
2018-11-22T22:05:49.040Z,53.07
2018-11-22T22:08:16.453Z,48.63
2018-11-22T22:10:43.936Z,49.03
2018-11-22T22:13:11.576Z,48.13
2018-11-22T22:15:39.082Z,50.20
2018-11-22T22:18:07.757Z,50.33
2018-11-22T22:20:35.892Z,50.57
2018-11-22T22:23:03.512Z,51.97
2018-11-22T22:25:31.327Z,58.80
2018-11-22T22:27:59.969Z,46.63
2018-11-22T22:30:29.869Z,50.67
2018-11-22T22:32:58.773Z,45.53
2018-11-22T22:35:26.271Z,55.03
2018-11-22T22:37:54.229Z,49.23
2018-11-22T22:40:26.024Z,55.57
2018-11-22T22:42:54.688Z,50.47
2018-11-22T22:45:24.955Z,54.77
2018-11-22T22:47:52.928Z,53.40
2018-11-22T22:50:21.877Z,46.70
2018-11-22T22:52:50.816Z,50.40
2018-11-22T22:55:18.289Z,55.23
2018-11-22T22:57:45.740Z,51.37
2018-11-22T23:00:21.332Z,54.60
2018-11-22T23:02:51.625Z,51.70
2018-11-22T23:05:19.642Z,54.03
2018-11-22T23:07:47.140Z,54.83
2018-11-22T23:10:17.754Z,51.00
2018-11-22T23:12:45.214Z,52.77
2018-11-22T23:15:13.716Z,54.77
2018-11-22T23:17:41.524Z,52.93
2018-11-22T23:20:12.167Z,53.83
2018-11-22T23:22:40.077Z,53.43
2018-11-22T23:25:08.032Z,54.70
2018-11-22T23:27:35.588Z,53.20
2018-11-22T23:30:03.938Z,54.33
2018-11-22T23:32:31.392Z,55.27
2018-11-22T23:34:58.828Z,65.37
2018-11-22T23:37:26.265Z,49.40
2018-11-22T23:39:53.697Z,48.37
2018-11-22T23:42:21.161Z,53.03
2018-11-22T23:44:48.592Z,53.67
2018-11-22T23:47:16.044Z,57.13
2018-11-22T23:49:43.476Z,63.07
2018-11-22T23:52:10.958Z,54.57
2018-11-22T23:54:38.417Z,60.33
2018-11-22T23:57:05.837Z,53.37
2018-11-22T23:59:33.288Z,49.23
